
Distance (Route):
Temperature : 5.1°C
Humidity : 65.9%
Pressure : 0hPa| Receiver | Date | Latitude | Longitude | Direction | Speed | Altitude | Climb | Temperature | Humidity | Pressure | Voltage | Killtimer | Uptime | BKT | XDATA |
|---|---|---|---|---|---|---|---|---|---|---|---|---|---|---|---|
| LZ4TU-5 | 2026-08-30 07:11:29 | 43.14351 | 22.23090 | 98° | 11km/h | 3469m | -15.3m/s | 5.1°C | 65.9% | 0hPa | 0V | 00:00:00 | 00:00:00 | 00:00:00 | |
| LZ4TU-5 | 2026-08-30 07:11:23 | 43.14350 | 22.23067 | 83° | 9km/h | 3546m | -15.2m/s | 4.6°C | 62.9% | 0hPa | 0V | 00:00:00 | 00:00:00 | 00:00:00 | |
| LZ4TU-5 | 2026-08-30 07:11:18 | 43.14348 | 22.23051 | 87° | 9km/h | 3623m | -14.9m/s | 3.9°C | 65.6% | 0hPa | 0V | 00:00:00 | 00:00:00 | 00:00:00 | |
| LZ4TU-5 | 2026-08-30 07:11:14 | 43.14347 | 22.23037 | 92° | 13km/h | 3683m | -15.5m/s | 3.4°C | 63.0% | 0hPa | 0V | 00:00:00 | 00:00:00 | 00:00:00 | |
| LZ4TU-5 | 2026-08-30 07:11:09 | 43.14351 | 22.23011 | 108° | 18km/h | 3761m | -15.6m/s | 3.3°C | 42.6% | 0hPa | 0V | 00:00:00 | 00:00:00 | 00:00:00 | |
| LZ4TU-5 | 2026-08-30 07:11:05 | 43.14357 | 22.22986 | 111° | 20km/h | 3823m | -15.6m/s | 3.3°C | 27.0% | 0hPa | 0V | 00:00:00 | 00:00:00 | 00:00:00 | |
| LZ4TU-5 | 2026-08-30 07:11:00 | 43.14367 | 22.22958 | 122° | 16km/h | 3902m | -16.3m/s | 3.1°C | 21.0% | 0hPa | 0V | 00:00:00 | 00:00:00 | 00:00:00 | |
| LZ4TU-5 | 2026-08-30 07:10:55 | 43.14378 | 22.22932 | 116° | 18km/h | 3976m | -16.5m/s | 2.6°C | 24.6% | 0hPa | 0V | 00:00:00 | 00:00:00 | 00:00:00 | |
| LZ4TU-5 | 2026-08-30 07:09:53 | 43.14459 | 22.22513 | 109° | 18km/h | 5059m | -17.3m/s | -4.1°C | 16.0% | 0hPa | 0V | 00:00:00 | 00:00:00 | 00:00:00 | |
| LZ4TU-5 | 2026-08-30 07:09:49 | 43.14468 | 22.22481 | 122° | 22km/h | 5137m | -17.9m/s | -4.7°C | 12.5% | 0hPa | 0V | 00:00:00 | 00:00:00 | 00:00:00 | |
| LZ4TU-5 | 2026-08-30 07:08:46 | 43.14710 | 22.22117 | 143° | 24km/h | 6269m | -18.4m/s | -11.2°C | 16.9% | 0hPa | 0V | 00:00:00 | 00:00:00 | 00:00:00 | |
| LZ4TU-5 | 2026-08-30 07:08:41 | 43.14733 | 22.22095 | 147° | 26km/h | 6365m | -19.0m/s | -11.6°C | 0% | 0hPa | 0V | 00:00:00 | 00:00:00 | 00:00:00 | |
| LZ4TU-5 | 2026-08-30 07:07:39 | 43.15107 | 22.21649 | 135° | 37km/h | 7582m | -20.3m/s | -19.5°C | 10.2% | 0hPa | 0V | 00:00:00 | 00:00:00 | 00:00:00 | |
| LZ4TU-5 | 2026-08-30 07:07:34 | 43.15138 | 22.21597 | 134° | 44km/h | 7679m | -21.0m/s | -20.2°C | 10.8% | 0hPa | 0V | 00:00:00 | 00:00:00 | 00:00:00 | |
| LZ4TU-5 | 2026-08-30 07:06:32 | 43.15501 | 22.20933 | 130° | 40km/h | 8954m | -19.4m/s | -30.4°C | 38.8% | 0hPa | 0V | 00:00:00 | 00:00:00 | 00:00:00 | |
| LZ4TU-5 | 2026-08-30 07:06:27 | 43.15532 | 22.20876 | 125° | 38km/h | 9039m | -20.3m/s | -31.2°C | 0% | 0hPa | 0V | 00:00:00 | 00:00:00 | 00:00:00 | |
| LZ4TU-5 | 2026-08-30 07:05:25 | 43.15990 | 22.20161 | 140° | 47km/h | 10396m | -21.9m/s | -42.8°C | 55.1% | 0hPa | 0V | 00:00:00 | 00:00:00 | 00:00:00 | |
| LZ4TU-5 | 2026-08-30 07:05:21 | 43.16029 | 22.20117 | 141° | 49km/h | 10487m | -22.1m/s | -43.6°C | 54.2% | 0hPa | 0V | 00:00:00 | 00:00:00 | 00:00:00 | |
| LZ4TU-5 | 2026-08-30 07:04:19 | 43.16680 | 22.19412 | 128° | 53km/h | 11918m | -23.8m/s | -52.8°C | 29.8% | 0hPa | 0V | 00:00:00 | 00:00:00 | 00:00:00 | |
| LZ4TU-5 | 2026-08-30 07:03:12 | 43.17125 | 22.18460 | 113° | 69km/h | 13646m | -28.0m/s | -60.5°C | 4.0% | 0hPa | 0V | 00:00:00 | 00:00:00 | 00:00:00 | |
| LZ4TU-5 | 2026-08-30 07:03:07 | 43.17163 | 22.18361 | 123° | 60km/h | 13787m | -27.8m/s | -60.0°C | 3.1% | 0hPa | 0V | 00:00:00 | 00:00:00 | 00:00:00 | |
| OM5KV | 2026-08-30 06:56:37 | 43.17177 | 22.17603 | 322° | 51km/h | 33003m | 7.4m/s | -37.2°C | 2.5% | 0hPa | 0V | 00:00:00 | 00:00:00 | 00:00:00 | |
| OM5KV | 2026-08-30 06:56:31 | 43.17143 | 22.17685 | 246° | 18km/h | 32966m | 8.4m/s | -37.4°C | 2.5% | 0hPa | 0V | 00:00:00 | 00:00:00 | 00:00:00 | |
| OM5KV | 2026-08-30 06:56:27 | 43.17151 | 22.17712 | 300° | 27km/h | 32935m | 6.9m/s | -37.1°C | 2.4% | 0hPa | 0V | 00:00:00 | 00:00:00 | 00:00:00 | |
| OM5KV | 2026-08-30 06:56:26 | 43.17151 | 22.17712 | 300° | 27km/h | 32935m | 6.9m/s | -37.1°C | 2.4% | 0hPa | 0V | 00:00:00 | 00:00:00 | 00:00:00 | |
| OM5KV | 2026-08-30 06:56:18 | 43.17123 | 22.17790 | 267° | 31km/h | 32885m | 5.1m/s | -37.4°C | 2.5% | 0hPa | 0V | 00:00:00 | 00:00:00 | 00:00:00 | |
| OM5KV | 2026-08-30 06:56:15 | 43.17145 | 22.17812 | 11° | 9km/h | 32877m | 7.2m/s | -37.5°C | 2.5% | 0hPa | 0V | 00:00:00 | 00:00:00 | 00:00:00 | |
| OM5KV | 2026-08-30 06:56:06 | 43.17088 | 22.17880 | 344° | 71km/h | 32811m | 8.8m/s | -37.6°C | 2.6% | 0hPa | 0V | 00:00:00 | 00:00:00 | 00:00:00 | |
| OM5KV | 2026-08-30 06:56:01 | 43.17026 | 22.17883 | 346° | 66km/h | 32769m | 4.8m/s | -37.9°C | 2.7% | 0hPa | 0V | 00:00:00 | 00:00:00 | 00:00:00 | |
| LZ4TU-5 | 2026-08-30 06:54:57 | 43.16564 | 22.18556 | 298° | 46km/h | 32344m | 6.4m/s | -37.1°C | 2.4% | 0hPa | 0V | 00:00:00 | 00:00:00 | 00:00:00 | |
| LZ4TU-5 | 2026-08-30 06:54:52 | 43.16540 | 22.18626 | 290° | 53km/h | 32313m | 6.1m/s | -37.2°C | 2.4% | 0hPa | 0V | 00:00:00 | 00:00:00 | 00:00:00 | |
| LZ4TU-5 | 2026-08-30 06:53:25 | 43.16582 | 22.19557 | 287° | 44km/h | 31721m | 5.7m/s | -38.1°C | 2.3% | 0hPa | 0V | 00:00:00 | 00:00:00 | 00:00:00 | |
| LZ4TU-5 | 2026-08-30 06:53:20 | 43.16578 | 22.19590 | 212° | 26km/h | 31692m | 6.0m/s | -37.9°C | 2.2% | 0hPa | 0V | 00:00:00 | 00:00:00 | 00:00:00 | |
| LZ4TU-5 | 2026-08-30 06:51:52 | 43.17023 | 22.20127 | 164° | 35km/h | 31136m | 4.8m/s | -40.7°C | 2.1% | 0hPa | 0V | 00:00:00 | 00:00:00 | 00:00:00 | |
| LZ4TU-5 | 2026-08-30 06:51:47 | 43.17019 | 22.20088 | 37° | 27km/h | 31101m | 5.6m/s | -40.9°C | 2.1% | 0hPa | 0V | 00:00:00 | 00:00:00 | 00:00:00 | |
| LZ4TU-5 | 2026-08-30 06:51:42 | 43.17031 | 22.20073 | 157° | 38km/h | 31063m | 7.2m/s | -40.8°C | 2.0% | 0hPa | 0V | 00:00:00 | 00:00:00 | 00:00:00 | |
| LZ4TU-5 | 2026-08-30 06:50:08 | 43.17161 | 22.19997 | 174° | 53km/h | 30428m | 7.2m/s | -41.9°C | 2.1% | 0hPa | 0V | 00:00:00 | 00:00:00 | 00:00:00 | |
| LZ4TU-5 | 2026-08-30 06:50:04 | 43.17199 | 22.20003 | 210° | 13km/h | 30402m | 9.1m/s | -42.1°C | 2.1% | 0hPa | 0V | 00:00:00 | 00:00:00 | 00:00:00 | |
| LZ4TU-5 | 2026-08-30 06:47:53 | 43.16986 | 22.19894 | 250° | 9km/h | 29548m | 5.8m/s | -44.2°C | 2.1% | 0hPa | 0V | 00:00:00 | 00:00:00 | 00:00:00 | |
| LZ4TU-5 | 2026-08-30 06:47:48 | 43.16981 | 22.19903 | 299° | 11km/h | 29516m | 6.9m/s | -44.3°C | 2.1% | 0hPa | 0V | 00:00:00 | 00:00:00 | 00:00:00 | |
| LZ4TU-5 | 2026-08-30 06:46:13 | 43.16948 | 22.20084 | 300° | 13km/h | 28914m | 7.3m/s | -47.3°C | 2.5% | 0hPa | 0V | 00:00:00 | 00:00:00 | 00:00:00 | |
| LZ4TU-5 | 2026-08-30 06:46:08 | 43.16932 | 22.20108 | 360° | 16km/h | 28879m | 5.9m/s | -47.0°C | 2.5% | 0hPa | 0V | 00:00:00 | 00:00:00 | 00:00:00 | |
| LZ4TU-5 | 2026-08-30 06:44:45 | 43.16940 | 22.20356 | 208° | 7km/h | 28288m | 5.8m/s | -45.4°C | 2.3% | 0hPa | 0V | 00:00:00 | 00:00:00 | 00:00:00 | |
| LZ4TU-5 | 2026-08-30 06:44:41 | 43.16949 | 22.20351 | 118° | 9km/h | 28261m | 6.8m/s | -45.4°C | 2.3% | 0hPa | 0V | 00:00:00 | 00:00:00 | 00:00:00 | |
| LZ4TU-5 | 2026-08-30 06:43:15 | 43.17069 | 22.20338 | 65° | 16km/h | 27695m | 6.4m/s | -45.2°C | 2.2% | 0hPa | 0V | 00:00:00 | 00:00:00 | 00:00:00 | |
| LZ4TU-5 | 2026-08-30 06:43:11 | 43.17076 | 22.20313 | 118° | 18km/h | 27668m | 6.4m/s | -45.1°C | 2.1% | 0hPa | 0V | 00:00:00 | 00:00:00 | 00:00:00 | |
| LZ4TU-5 | 2026-08-30 06:41:33 | 43.16942 | 22.20209 | 59° | 5km/h | 27083m | 5.7m/s | -46.1°C | 1.7% | 0hPa | 0V | 00:00:00 | 00:00:00 | 00:00:00 | |
| LZ4TU-5 | 2026-08-30 06:41:28 | 43.16945 | 22.20219 | 326° | 4km/h | 27051m | 6.4m/s | -46.3°C | 1.7% | 0hPa | 0V | 00:00:00 | 00:00:00 | 00:00:00 | |
| LZ4TU-5 | 2026-08-30 06:40:00 | 43.16866 | 22.20029 | 37° | 5km/h | 26474m | 6.5m/s | -50.1°C | 2.1% | 0hPa | 0V | 00:00:00 | 00:00:00 | 00:00:00 | |
| LZ4TU-5 | 2026-08-30 06:39:55 | 43.16864 | 22.20037 | 228° | 13km/h | 26438m | 7.2m/s | -50.0°C | 2.0% | 0hPa | 0V | 00:00:00 | 00:00:00 | 00:00:00 | |
| LZ4TU-5 | 2026-08-30 06:38:29 | 43.16780 | 22.20110 | 264° | 27km/h | 25881m | 5.9m/s | -50.0°C | 1.5% | 0hPa | 0V | 00:00:00 | 00:00:00 | 00:00:00 | |
| LZ4TU-5 | 2026-08-30 06:38:25 | 43.16787 | 22.20136 | 208° | 4km/h | 25857m | 5.3m/s | -50.3°C | 1.5% | 0hPa | 0V | 00:00:00 | 00:00:00 | 00:00:00 | |
| LZ4TU-5 | 2026-08-30 06:36:51 | 43.16727 | 22.20314 | 271° | 9km/h | 25280m | 7.1m/s | -51.1°C | 1.8% | 0hPa | 0V | 00:00:00 | 00:00:00 | 00:00:00 | |
| LZ4TU-5 | 2026-08-30 06:36:46 | 43.16719 | 22.20316 | 15° | 13km/h | 25249m | 5.9m/s | -51.2°C | 1.9% | 0hPa | 0V | 00:00:00 | 00:00:00 | 00:00:00 | |
| LZ4TU-5 | 2026-08-30 06:35:22 | 43.16564 | 22.20738 | 272° | 20km/h | 24712m | 6.5m/s | -51.6°C | 1.9% | 0hPa | 0V | 00:00:00 | 00:00:00 | 00:00:00 | |
| LZ4TU-5 | 2026-08-30 06:35:17 | 43.16563 | 22.20764 | 255° | 4km/h | 24680m | 5.9m/s | -51.6°C | 1.9% | 0hPa | 0V | 00:00:00 | 00:00:00 | 00:00:00 | |
| LZ4TU-5 | 2026-08-30 06:33:46 | 43.16430 | 22.21205 | 304° | 29km/h | 24124m | 5.1m/s | -52.9°C | 1.7% | 0hPa | 0V | 00:00:00 | 00:00:00 | 00:00:00 | |
| LZ4TU-5 | 2026-08-30 06:33:41 | 43.16417 | 22.21230 | 296° | 20km/h | 24092m | 6.9m/s | -52.8°C | 0% | 0hPa | 0V | 00:00:00 | 00:00:00 | 00:00:00 | |
| LZ4TU-5 | 2026-08-30 06:32:17 | 43.16148 | 22.21859 | 286° | 7km/h | 23587m | 5.6m/s | -54.4°C | 1.9% | 0hPa | 0V | 00:00:00 | 00:00:00 | 00:00:00 | |
| LZ4TU-5 | 2026-08-30 06:32:12 | 43.16153 | 22.21880 | 218° | 18km/h | 23556m | 5.2m/s | -54.4°C | 1.9% | 0hPa | 0V | 00:00:00 | 00:00:00 | 00:00:00 | |
| LZ4TU-5 | 2026-08-30 06:30:47 | 43.15948 | 22.22629 | 298° | 40km/h | 23039m | 4.9m/s | -53.2°C | 1.8% | 0hPa | 0V | 00:00:00 | 00:00:00 | 00:00:00 | |
| LZ4TU-5 | 2026-08-30 06:30:42 | 43.15936 | 22.22693 | 276° | 29km/h | 23011m | 7.0m/s | -53.1°C | 1.8% | 0hPa | 0V | 00:00:00 | 00:00:00 | 00:00:00 | |
| LZ4TU-5 | 2026-08-30 06:29:09 | 43.15824 | 22.23272 | 268° | 20km/h | 22461m | 6.5m/s | -55.2°C | 1.7% | 0hPa | 0V | 00:00:00 | 00:00:00 | 00:00:00 | |
| LZ4TU-5 | 2026-08-30 06:29:04 | 43.15819 | 22.23302 | 346° | 11km/h | 22433m | 6.7m/s | -55.7°C | 1.7% | 0hPa | 0V | 00:00:00 | 00:00:00 | 00:00:00 | |
| LZ4TU-5 | 2026-08-30 06:27:39 | 43.15901 | 22.23756 | 201° | 18km/h | 21937m | 5.9m/s | -55.9°C | 1.7% | 0hPa | 0V | 00:00:00 | 00:00:00 | 00:00:00 | |
| LZ4TU-5 | 2026-08-30 06:27:35 | 43.15910 | 22.23771 | 239° | 13km/h | 21915m | 4.9m/s | -55.9°C | 1.7% | 0hPa | 0V | 00:00:00 | 00:00:00 | 00:00:00 | |
| LZ4TU-5 | 2026-08-30 06:26:09 | 43.15955 | 22.23912 | 248° | 22km/h | 21425m | 4.9m/s | -56.0°C | 1.8% | 0hPa | 0V | 00:00:00 | 00:00:00 | 00:00:00 | |
| LZ4TU-5 | 2026-08-30 06:26:04 | 43.15967 | 22.23918 | 263° | 5km/h | 21396m | 6.1m/s | -55.7°C | 1.7% | 0hPa | 0V | 00:00:00 | 00:00:00 | 00:00:00 | |
| LZ4TU-5 | 2026-08-30 06:24:39 | 43.16054 | 22.24051 | 140° | 4km/h | 20919m | 6.2m/s | -56.2°C | 2.1% | 0hPa | 0V | 00:00:00 | 00:00:00 | 00:00:00 | |
| LZ4TU-5 | 2026-08-30 06:24:34 | 43.16056 | 22.24065 | 280° | 16km/h | 20890m | 5.7m/s | -56.0°C | 1.9% | 0hPa | 0V | 00:00:00 | 00:00:00 | 00:00:00 | |
| LZ4TU-5 | 2026-08-30 06:23:09 | 43.15892 | 22.24453 | 300° | 18km/h | 20426m | 6.3m/s | -56.1°C | 2.0% | 0hPa | 0V | 00:00:00 | 00:00:00 | 00:00:00 | |
| LZ4TU-5 | 2026-08-30 06:23:04 | 43.15884 | 22.24484 | 260° | 26km/h | 20398m | 5.2m/s | -56.0°C | 0% | 0hPa | 0V | 00:00:00 | 00:00:00 | 00:00:00 | |
| LZ4TU-5 | 2026-08-30 06:21:37 | 43.15840 | 22.24886 | 252° | 18km/h | 19924m | 5.3m/s | -56.8°C | 1.9% | 0hPa | 0V | 00:00:00 | 00:00:00 | 00:00:00 | |
| LZ4TU-5 | 2026-08-30 06:21:33 | 43.15845 | 22.24906 | 260° | 16km/h | 19902m | 5.2m/s | -56.8°C | 1.9% | 0hPa | 0V | 00:00:00 | 00:00:00 | 00:00:00 | |
| LZ4TU-5 | 2026-08-30 06:20:03 | 43.15972 | 22.24986 | 183° | 9km/h | 19399m | 6.3m/s | -56.7°C | 2.2% | 0hPa | 0V | 00:00:00 | 00:00:00 | 00:00:00 | |
| LZ4TU-5 | 2026-08-30 06:19:58 | 43.15987 | 22.24989 | 155° | 11km/h | 19369m | 6.3m/s | -56.6°C | 2.1% | 0hPa | 0V | 00:00:00 | 00:00:00 | 00:00:00 | |
| LZ4TU-5 | 2026-08-30 06:18:31 | 43.16065 | 22.24999 | 190° | 11km/h | 18887m | 5.6m/s | -56.4°C | 2.3% | 0hPa | 0V | 00:00:00 | 00:00:00 | 00:00:00 | |
| LZ4TU-5 | 2026-08-30 06:18:26 | 43.16057 | 22.25008 | 356° | 9km/h | 18861m | 4.4m/s | -56.4°C | 2.3% | 0hPa | 0V | 00:00:00 | 00:00:00 | 00:00:00 | |
| LZ4TU-5 | 2026-08-30 06:17:01 | 43.15999 | 22.24711 | 71° | 27km/h | 18406m | 4.7m/s | -57.8°C | 2.7% | 0hPa | 0V | 00:00:00 | 00:00:00 | 00:00:00 | |
| LZ4TU-5 | 2026-08-30 06:16:57 | 43.15988 | 22.24680 | 64° | 20km/h | 18386m | 4.7m/s | -57.8°C | 2.6% | 0hPa | 0V | 00:00:00 | 00:00:00 | 00:00:00 | |
| LZ4TU-5 | 2026-08-30 06:15:33 | 43.15910 | 22.24014 | 88° | 27km/h | 17933m | 5.5m/s | -60.3°C | 2.6% | 0hPa | 0V | 00:00:00 | 00:00:00 | 00:00:00 | |
| LZ4TU-5 | 2026-08-30 06:15:28 | 43.15898 | 22.23970 | 62° | 18km/h | 17908m | 5.3m/s | -60.4°C | 2.7% | 0hPa | 0V | 00:00:00 | 00:00:00 | 00:00:00 | |
| LZ4TU-5 | 2026-08-30 06:14:03 | 43.15887 | 22.23681 | 107° | 15km/h | 17467m | 5.8m/s | -58.3°C | 3.1% | 0hPa | 0V | 00:00:00 | 00:00:00 | 00:00:00 | |
| LZ4TU-5 | 2026-08-30 06:13:59 | 43.15896 | 22.23663 | 151° | 20km/h | 17445m | 5.1m/s | -58.1°C | 3.1% | 0hPa | 0V | 00:00:00 | 00:00:00 | 00:00:00 | |
| LZ4TU-5 | 2026-08-30 06:12:35 | 43.15986 | 22.23243 | 139° | 20km/h | 16996m | 5.8m/s | -58.4°C | 3.2% | 0hPa | 0V | 00:00:00 | 00:00:00 | 00:00:00 | |
| LZ4TU-5 | 2026-08-30 06:12:31 | 43.15989 | 22.23228 | 65° | 18km/h | 16973m | 5.5m/s | -58.6°C | 3.4% | 0hPa | 0V | 00:00:00 | 00:00:00 | 00:00:00 | |
| LZ4TU-5 | 2026-08-30 06:11:06 | 43.16286 | 22.22202 | 101° | 44km/h | 16546m | 4.9m/s | -58.4°C | 3.4% | 0hPa | 0V | 00:00:00 | 00:00:00 | 00:00:00 | |
| LZ4TU-5 | 2026-08-30 06:11:01 | 43.16297 | 22.22128 | 106° | 37km/h | 16520m | 4.7m/s | -58.6°C | 3.3% | 0hPa | 0V | 00:00:00 | 00:00:00 | 00:00:00 | |
| LZ4TU-5 | 2026-08-30 06:09:38 | 43.16244 | 22.20930 | 82° | 38km/h | 16103m | 4.4m/s | -59.8°C | 3.5% | 0hPa | 0V | 00:00:00 | 00:00:00 | 00:00:00 | |
| LZ4TU-5 | 2026-08-30 06:09:33 | 43.16244 | 22.20869 | 88° | 27km/h | 16079m | 6.3m/s | -59.8°C | 3.6% | 0hPa | 0V | 00:00:00 | 00:00:00 | 00:00:00 | |
| LZ4TU-5 | 2026-08-30 06:08:07 | 43.16349 | 22.19947 | 105° | 37km/h | 15654m | 4.4m/s | -59.1°C | 4.6% | 0hPa | 0V | 00:00:00 | 00:00:00 | 00:00:00 | |
| LZ4TU-5 | 2026-08-30 06:06:38 | 43.16514 | 22.18949 | 110° | 47km/h | 15217m | 5.2m/s | -58.8°C | 4.9% | 0hPa | 0V | 00:00:00 | 00:00:00 | 00:00:00 | |
| LZ4TU-5 | 2026-08-30 06:06:34 | 43.16529 | 22.18891 | 106° | 40km/h | 15199m | 5.0m/s | -59.2°C | 5.0% | 0hPa | 0V | 00:00:00 | 00:00:00 | 00:00:00 | |
| LZ4TU-5 | 2026-08-30 06:05:09 | 43.16816 | 22.17734 | 110° | 55km/h | 14799m | 4.8m/s | -58.3°C | 6.2% | 0hPa | 0V | 00:00:00 | 00:00:00 | 00:00:00 | |
| LZ4TU-5 | 2026-08-30 06:05:04 | 43.16843 | 22.17643 | 110° | 55km/h | 14775m | 3.5m/s | -58.2°C | 6.3% | 0hPa | 0V | 00:00:00 | 00:00:00 | 00:00:00 | |
| LZ4TU-5 | 2026-08-30 06:03:37 | 43.17159 | 22.16015 | 89° | 53km/h | 14378m | 4.0m/s | -57.3°C | 9.2% | 0hPa | 0V | 00:00:00 | 00:00:00 | 00:00:00 | |
| LZ4TU-5 | 2026-08-30 06:03:33 | 43.17162 | 22.15951 | 102° | 40km/h | 14360m | 4.0m/s | -57.2°C | 9.6% | 0hPa | 0V | 00:00:00 | 00:00:00 | 00:00:00 | |
| LZ4TU-5 | 2026-08-30 06:02:08 | 43.17551 | 22.14812 | 120° | 60km/h | 13945m | 3.8m/s | -58.3°C | 15.8% | 0hPa | 0V | 00:00:00 | 00:00:00 | 00:00:00 | |
| LZ4TU-5 | 2026-08-30 06:02:03 | 43.17586 | 22.14750 | 132° | 60km/h | 13928m | 4.6m/s | -58.3°C | 16.2% | 0hPa | 0V | 00:00:00 | 00:00:00 | 00:00:00 | |
| LZ4TU-5 | 2026-08-30 06:00:38 | 43.18275 | 22.13130 | 109° | 62km/h | 13567m | 3.7m/s | -60.4°C | 20.8% | 0hPa | 0V | 00:00:00 | 00:00:00 | 00:00:00 | |
| LZ4TU-5 | 2026-08-30 06:00:34 | 43.18295 | 22.13035 | 112° | 75km/h | 13552m | 3.9m/s | -60.3°C | 20.9% | 0hPa | 0V | 00:00:00 | 00:00:00 | 00:00:00 | |
| LZ4TU-5 | 2026-08-30 05:59:08 | 43.18704 | 22.11588 | 120° | 49km/h | 13145m | 3.6m/s | -58.3°C | 24.3% | 0hPa | 0V | 00:00:00 | 00:00:00 | 00:00:00 | |
| LZ4TU-5 | 2026-08-30 05:59:04 | 43.18728 | 22.11544 | 140° | 35km/h | 13127m | 4.7m/s | -58.7°C | 24.7% | 0hPa | 0V | 00:00:00 | 00:00:00 | 00:00:00 | |
| LZ4TU-5 | 2026-08-30 05:57:38 | 43.19271 | 22.10519 | 132° | 44km/h | 12736m | 4.2m/s | -57.5°C | 27.9% | 0hPa | 0V | 00:00:00 | 00:00:00 | 00:00:00 | |
| LZ4TU-5 | 2026-08-30 05:57:33 | 43.19311 | 22.10460 | 137° | 42km/h | 12714m | 4.1m/s | -57.4°C | 0% | 0hPa | 0V | 00:00:00 | 00:00:00 | 00:00:00 | |
| LZ4TU-5 | 2026-08-30 05:56:08 | 43.20079 | 22.09361 | 130° | 46km/h | 12322m | 4.1m/s | -55.5°C | 29.4% | 0hPa | 0V | 00:00:00 | 00:00:00 | 00:00:00 | |
| LZ4TU-5 | 2026-08-30 05:56:04 | 43.20112 | 22.09314 | 135° | 49km/h | 12304m | 4.9m/s | -55.4°C | 29.5% | 0hPa | 0V | 00:00:00 | 00:00:00 | 00:00:00 | |
| LZ4TU-5 | 2026-08-30 05:54:35 | 43.20868 | 22.08401 | 146° | 47km/h | 11910m | 4.7m/s | -52.9°C | 33.5% | 0hPa | 0V | 00:00:00 | 00:00:00 | 00:00:00 | |
| LZ4TU-5 | 2026-08-30 05:54:31 | 43.20910 | 22.08357 | 140° | 51km/h | 11893m | 3.6m/s | -52.9°C | 34.0% | 0hPa | 0V | 00:00:00 | 00:00:00 | 00:00:00 | |
| LZ4TU-5 | 2026-08-30 05:53:05 | 43.21838 | 22.07345 | 143° | 53km/h | 11535m | 4.4m/s | -50.8°C | 35.3% | 0hPa | 0V | 00:00:00 | 00:00:00 | 00:00:00 | |
| LZ4TU-5 | 2026-08-30 05:53:00 | 43.21897 | 22.07278 | 150° | 60km/h | 11514m | 4.2m/s | -50.7°C | 35.4% | 0hPa | 0V | 00:00:00 | 00:00:00 | 00:00:00 | |
| LZ4TU-5 | 2026-08-30 05:52:55 | 43.21954 | 22.07228 | 143° | 51km/h | 11493m | 3.2m/s | -50.5°C | 35.6% | 0hPa | 0V | 00:00:00 | 00:00:00 | 00:00:00 | |
| LZ4TU-5 | 2026-08-30 05:52:51 | 43.21999 | 22.07174 | 143° | 64km/h | 11477m | 4.3m/s | -50.3°C | 35.9% | 0hPa | 0V | 00:00:00 | 00:00:00 | 00:00:00 | |
| LZ4TU-5 | 2026-08-30 05:52:46 | 43.22063 | 22.07120 | 147° | 57km/h | 11456m | 4.9m/s | -50.2°C | 36.3% | 0hPa | 0V | 00:00:00 | 00:00:00 | 00:00:00 | |
| LZ4TU-5 | 2026-08-30 05:51:14 | 43.23002 | 22.06131 | 142° | 64km/h | 11064m | 5.2m/s | -48.3°C | 42.2% | 0hPa | 0V | 00:00:00 | 00:00:00 | 00:00:00 | |
| LZ4TU-5 | 2026-08-30 05:51:09 | 43.23060 | 22.06065 | 138° | 49km/h | 11043m | 4.8m/s | -48.2°C | 0% | 0hPa | 0V | 00:00:00 | 00:00:00 | 00:00:00 | |
| LZ4TU-5 | 2026-08-30 05:49:38 | 43.24020 | 22.04984 | 142° | 49km/h | 10634m | 5.3m/s | -45.2°C | 44.3% | 0hPa | 0V | 00:00:00 | 00:00:00 | 00:00:00 | |
| LZ4TU-5 | 2026-08-30 05:49:34 | 43.24056 | 22.04938 | 138° | 49km/h | 10616m | 3.7m/s | -45.0°C | 44.4% | 0hPa | 0V | 00:00:00 | 00:00:00 | 00:00:00 | |
| LZ4TU-5 | 2026-08-30 05:48:10 | 43.24865 | 22.03882 | 140° | 57km/h | 10225m | 5.1m/s | -41.7°C | 41.6% | 0hPa | 0V | 00:00:00 | 00:00:00 | 00:00:00 | |
| LZ4TU-5 | 2026-08-30 05:48:05 | 43.24913 | 22.03824 | 132° | 47km/h | 10203m | 5.3m/s | -41.5°C | 40.9% | 0hPa | 0V | 00:00:00 | 00:00:00 | 00:00:00 | |
| LZ4TU-5 | 2026-08-30 05:46:39 | 43.25666 | 22.02698 | 134° | 47km/h | 9820m | 6.4m/s | -38.3°C | 36.4% | 0hPa | 0V | 00:00:00 | 00:00:00 | 00:00:00 | |
| LZ4TU-5 | 2026-08-30 05:46:35 | 43.25703 | 22.02654 | 137° | 57km/h | 9801m | 3.4m/s | -38.2°C | 35.7% | 0hPa | 0V | 00:00:00 | 00:00:00 | 00:00:00 | |
| LZ4TU-5 | 2026-08-30 05:45:10 | 43.26403 | 22.01487 | 115° | 49km/h | 9431m | 4.8m/s | -35.4°C | 32.7% | 0hPa | 0V | 00:00:00 | 00:00:00 | 00:00:00 | |
| LZ4TU-5 | 2026-08-30 05:45:05 | 43.26439 | 22.01416 | 128° | 49km/h | 9411m | 4.7m/s | -35.2°C | 33.2% | 0hPa | 0V | 00:00:00 | 00:00:00 | 00:00:00 | |
| LZ4TU-5 | 2026-08-30 05:43:42 | 43.26950 | 22.00405 | 127° | 40km/h | 9018m | 3.6m/s | -31.8°C | 29.2% | 0hPa | 0V | 00:00:00 | 00:00:00 | 00:00:00 | |
| LZ4TU-5 | 2026-08-30 05:43:38 | 43.26975 | 22.00347 | 117° | 51km/h | 9000m | 4.3m/s | -31.6°C | 29.1% | 0hPa | 0V | 00:00:00 | 00:00:00 | 00:00:00 | |
| LZ4TU-5 | 2026-08-30 05:42:14 | 43.27408 | 21.99280 | 132° | 57km/h | 8596m | 2.1m/s | -28.4°C | 14.8% | 0hPa | 0V | 00:00:00 | 00:00:00 | 00:00:00 | |
| LZ4TU-5 | 2026-08-30 05:42:09 | 43.27444 | 21.99224 | 132° | 29km/h | 8565m | 8.1m/s | -28.2°C | 14.8% | 0hPa | 0V | 00:00:00 | 00:00:00 | 00:00:00 | |
| LZ4TU-5 | 2026-08-30 05:40:50 | 43.27834 | 21.98354 | 143° | 18km/h | 8177m | 3.2m/s | -24.9°C | 17.4% | 0hPa | 0V | 00:00:00 | 00:00:00 | 00:00:00 | |
| LZ4TU-5 | 2026-08-30 05:40:46 | 43.27843 | 21.98323 | 112° | 44km/h | 8163m | 5.0m/s | -24.8°C | 17.2% | 0hPa | 0V | 00:00:00 | 00:00:00 | 00:00:00 | |
| LZ4TU-5 | 2026-08-30 05:39:24 | 43.28347 | 21.97573 | 160° | 22km/h | 7756m | 2.3m/s | -21.5°C | 17.4% | 0hPa | 0V | 00:00:00 | 00:00:00 | 00:00:00 | |
| LZ4TU-5 | 2026-08-30 05:39:19 | 43.28390 | 21.97536 | 128° | 44km/h | 7726m | 6.8m/s | -21.4°C | 15.8% | 0hPa | 0V | 00:00:00 | 00:00:00 | 00:00:00 | |
| LZ4TU-5 | 2026-08-30 05:37:52 | 43.28936 | 21.96742 | 93° | 20km/h | 7270m | 6.3m/s | -18.2°C | 14.9% | 0hPa | 0V | 00:00:00 | 00:00:00 | 00:00:00 | |
| LZ4TU-5 | 2026-08-30 05:37:47 | 43.28932 | 21.96706 | 124° | 24km/h | 7244m | 7.1m/s | -18.0°C | 12.9% | 0hPa | 0V | 00:00:00 | 00:00:00 | 00:00:00 | |
| LZ4TU-5 | 2026-08-30 05:36:25 | 43.29362 | 21.96248 | 74° | 18km/h | 6809m | 5.2m/s | -14.9°C | 9.9% | 0hPa | 0V | 00:00:00 | 00:00:00 | 00:00:00 | |
| LZ4TU-5 | 2026-08-30 05:36:20 | 43.29376 | 21.96206 | 155° | 44km/h | 6779m | 6.3m/s | -14.7°C | 0% | 0hPa | 0V | 00:00:00 | 00:00:00 | 00:00:00 | |
| LZ4TU-5 | 2026-08-30 05:34:03 | 43.30209 | 21.95684 | 172° | 31km/h | 6063m | 6.4m/s | -9.9°C | 15.8% | 0hPa | 0V | 00:00:00 | 00:00:00 | 00:00:00 | |
| LZ4TU-5 | 2026-08-30 05:33:58 | 43.30256 | 21.95659 | 138° | 40km/h | 6039m | 5.5m/s | -9.7°C | 13.8% | 0hPa | 0V | 00:00:00 | 00:00:00 | 00:00:00 | |
| LZ4TU-5 | 2026-08-30 05:32:52 | 43.30601 | 21.95244 | 186° | 31km/h | 5708m | 3.9m/s | -8.0°C | 19.8% | 0hPa | 0V | 00:00:00 | 00:00:00 | 00:00:00 | |
| LZ4TU-5 | 2026-08-30 05:32:47 | 43.30643 | 21.95210 | 121° | 51km/h | 5685m | 5.3m/s | -8.0°C | 19.8% | 0hPa | 0V | 00:00:00 | 00:00:00 | 00:00:00 | |
| LZ4TU-5 | 2026-08-30 05:31:35 | 43.31005 | 21.94595 | 75° | 15km/h | 5300m | 5.1m/s | -6.1°C | 13.6% | 0hPa | 0V | 00:00:00 | 00:00:00 | 00:00:00 | |
| LZ4TU-5 | 2026-08-30 05:31:30 | 43.31005 | 21.94553 | 109° | 38km/h | 5276m | 6.1m/s | -5.9°C | 12.9% | 0hPa | 0V | 00:00:00 | 00:00:00 | 00:00:00 | |
| LZ4TU-5 | 2026-08-30 05:30:22 | 43.31172 | 21.94147 | 172° | 4km/h | 4899m | 7.5m/s | -3.6°C | 18.7% | 0hPa | 0V | 00:00:00 | 00:00:00 | 00:00:00 | |
| LZ4TU-5 | 2026-08-30 05:30:17 | 43.31195 | 21.94132 | 114° | 26km/h | 4868m | 5.8m/s | -3.4°C | 18.7% | 0hPa | 0V | 00:00:00 | 00:00:00 | 00:00:00 | |
| LZ4TU-5 | 2026-08-30 05:29:08 | 43.31352 | 21.93629 | 63° | 18km/h | 4495m | 6.5m/s | -1.3°C | 22.3% | 0hPa | 0V | 00:00:00 | 00:00:00 | 00:00:00 | |
| LZ4TU-5 | 2026-08-30 05:29:03 | 43.31365 | 21.93569 | 126° | 40km/h | 4466m | 6.3m/s | -1.3°C | 28.5% | 0hPa | 0V | 00:00:00 | 00:00:00 | 00:00:00 | |
| LZ4TU-5 | 2026-08-30 05:27:53 | 43.31603 | 21.92998 | 153° | 38km/h | 4134m | 4.1m/s | 0.7°C | 26.3% | 0hPa | 0V | 00:00:00 | 00:00:00 | 00:00:00 | |
| LZ4TU-5 | 2026-08-30 05:27:49 | 43.31616 | 21.92986 | 73° | 18km/h | 4118m | 3.5m/s | 0.9°C | 0% | 0hPa | 0V | 00:00:00 | 00:00:00 | 00:00:00 | |
| LZ4TU-5 | 2026-08-30 05:26:48 | 43.31818 | 21.92444 | 113° | 46km/h | 3800m | 6.2m/s | 2.8°C | 28.0% | 0hPa | 0V | 00:00:00 | 00:00:00 | 00:00:00 | |
| LZ4TU-5 | 2026-08-30 05:26:43 | 43.31822 | 21.92383 | 103° | 31km/h | 3772m | 4.9m/s | 2.5°C | 43.3% | 0hPa | 0V | 00:00:00 | 00:00:00 | 00:00:00 | |
| LZ4TU-5 | 2026-08-30 05:25:41 | 43.31849 | 21.91940 | 146° | 26km/h | 3444m | 4.9m/s | 4.7°C | 56.2% | 0hPa | 0V | 00:00:00 | 00:00:00 | 00:00:00 |